• Join FlightAware (Why Join?)
  • Login
  • US Flag 
12:35AM EDT


 

Airport Tracker/Info


-or-


 

Live Flight TrackerFlight Track Log ✈ ASQ5046 ✈ 13-May-2013 ✈ KCSG - KATL

Flight Track Log - Related Links

Times and Time Zones

All times are in EDT time to prevent confusion due to time zone crossing. See the ASQ5046 flight status page for this flight to view local times or setup timezone preferences in your user account.

Time Position Orientation Groundspeed Altitude Reporting Facility
EDT Latitude Longitude Course Direction KTS MPH feet Rate Location/Type
08:02AM 32.5500 -84.8833 56° Northeast 186 214 3,200  Level Atlanta TRACON
08:03AM 32.6000 -84.8167 48° Northeast 264 304 5,700 2,640 Climbing Atlanta TRACON
08:04AM 32.6333 -84.7333 65° Northeast 286 329 8,500 2,160 Climbing Atlanta TRACON
08:05AM 32.6833 -84.6500 55° Northeast 330 380 10,100 720 Climbing Atlanta TRACON
08:06AM 32.7333 -84.5500 59° Northeast 393 452 10,000 -60 Descending Atlanta TRACON
08:07AM 32.8143 -84.3710 56° Northeast  Level FlightAware Approximate
08:07AM 32.8000 -84.4333 56° Northeast 392 451 10,000  Level Atlanta TRACON
08:08AM 32.8500 -84.3333 59° Northeast 394 453 10,100 -60 Climbing Atlanta TRACON
08:09AM 32.9000 -84.2167 63° Northeast 396 456 9,900 -120 Descending Atlanta TRACON
08:10AM 32.9833 -84.1500 34° Northeast 348 400 9,900  Level Atlanta TRACON
08:11AM 33.0667 -84.1167 19° North 276 318 10,000  Climbing Atlanta TRACON
08:12AM 33.1333 -84.0833 23° Northeast 278 320 10,000  Level Atlanta TRACON
08:13AM 33.2000 -84.0500 23° Northeast 281 323 10,100 -120 Climbing Atlanta TRACON
08:14AM 33.2833 -84.0167 18° North 275 316 9,800 -1,020 Descending Atlanta TRACON
08:15AM 33.3500 -84.0000 12° North 264 304 8,100 -1,260 Descending Atlanta TRACON
08:16AM 33.4167 -84.0500 328° Northwest 262 302 7,300 -1,320 Descending Atlanta TRACON
08:17AM 33.4833 -84.0667 348° North 251 289 5,500 -1,200 Descending Atlanta TRACON
08:18AM 33.5500 -84.0833 348° North 231 266 5,000 -660 Descending Atlanta TRACON
08:19AM 33.6000 -84.0833 360° North 190 219 4,200 -480 Descending Atlanta TRACON
08:20AM 33.6167 -84.1333 292° West 187 215 4,100 -60 Descending Atlanta TRACON
08:21AM 33.6167 -84.2000 270° West 185 213 4,100 -240 Level Atlanta TRACON
08:22AM 33.6167 -84.2667 270° West 187 215 3,700 -780 Descending Atlanta TRACON
08:23AM 33.6167 -84.3167 270° West 185 213 2,600 -960 Descending Atlanta TRACON
08:24AM 33.6167 -84.3833 270° West 145 167 1,800 -840 Descending Atlanta TRACON
08:26AM 33.6367 -84.4279 270° West  Level Estimated
08:33AM 33.6367 -84.4279 64° Northeast  Level Estimated
08:34AM 33.6367 -84.4279 64° Northeast  Level Estimated